Time;durP1;ratioP1;P1;durP2;ratioP2;P2;SDS_P1;SDS_P2;PMS_P1;PMS_P2;Temp;Humidity;BMP_temperature;BMP_pressure;BME280_temperature;BME280_humidity;BME280_pressure;Samples;Min_cycle;Max_cycle;Signal;HPM_P1;HPM_P2
2022/04/04 00:01:45;;;;;;;6.57;3.10;;;4.00;99.90;;;;;;5135095;27;20053;-76
2022/04/04 00:04:10;;;;;;;6.15;2.75;;;3.90;99.90;;;;;;5152948;27;20047;-76
2022/04/04 00:06:36;;;;;;;6.60;3.10;;;3.90;99.90;;;;;;5153800;27;20176;-75
2022/04/04 00:09:02;;;;;;;7.53;3.33;;;3.90;99.90;;;;;;5153302;27;20094;-76
2022/04/04 00:11:28;;;;;;;5.78;3.03;;;4.00;99.90;;;;;;5153819;27;20042;-75
2022/04/04 00:13:54;;;;;;;6.18;3.05;;;3.90;99.90;;;;;;5153460;27;20471;-75
2022/04/04 00:16:22;;;;;;;5.25;3.25;;;4.00;99.90;;;;;;5135443;27;20402;-75
2022/04/04 00:18:49;;;;;;;4.60;3.38;;;3.90;99.90;;;;;;5153107;27;20080;-75
2022/04/04 00:21:15;;;;;;;5.13;3.60;;;3.90;99.90;;;;;;5144524;27;20043;-75
2022/04/04 00:23:41;;;;;;;4.93;3.60;;;3.90;99.90;;;;;;5153663;27;20051;-76
2022/04/04 00:26:06;;;;;;;6.47;3.33;;;3.90;99.90;;;;;;5153300;27;20079;-76
2022/04/04 00:28:32;;;;;;;4.75;3.78;;;3.90;99.90;;;;;;5135451;27;20043;-76
2022/04/04 00:30:58;;;;;;;5.60;3.38;;;3.90;99.90;;;;;;5114294;28;20122;-76
2022/04/04 00:33:23;;;;;;;4.35;3.33;;;3.90;99.90;;;;;;5127932;27;20535;-75
2022/04/04 00:35:49;;;;;;;5.90;3.38;;;4.00;99.90;;;;;;5134751;27;20486;-76
2022/04/04 00:38:16;;;;;;;5.00;3.85;;;3.90;99.90;;;;;;5115968;27;20364;-76
2022/04/04 00:40:43;;;;;;;7.22;3.40;;;4.00;99.90;;;;;;5125496;27;20047;-75
2022/04/04 00:43:08;;;;;;;6.13;3.53;;;3.90;99.90;;;;;;5137998;27;20047;-79
2022/04/04 00:45:34;;;;;;;4.43;3.55;;;4.00;99.90;;;;;;5132654;27;20099;-75
2022/04/04 00:48:00;;;;;;;4.60;3.70;;;4.00;99.90;;;;;;5135519;27;20046;-75
2022/04/04 00:50:25;;;;;;;6.07;3.92;;;4.00;99.90;;;;;;5156692;27;20563;-75
2022/04/04 00:52:51;;;;;;;6.28;3.58;;;4.10;99.90;;;;;;5156083;27;20046;-76
2022/04/04 00:55:17;;;;;;;6.15;3.72;;;4.00;99.90;;;;;;5147830;27;20073;-75
2022/04/04 00:57:43;;;;;;;6.93;4.07;;;4.10;99.90;;;;;;5120873;27;20039;-75
2022/04/04 01:00:09;;;;;;;6.65;4.65;;;4.00;99.90;;;;;;5156015;27;20053;-76
2022/04/04 01:02:38;;;;;;;6.13;4.20;;;4.10;99.90;;;;;;5137948;27;20041;-75
2022/04/04 01:05:04;;;;;;;9.75;5.05;;;4.10;99.90;;;;;;5155908;27;20050;-75
2022/04/04 01:07:31;;;;;;;7.40;5.00;;;4.10;99.90;;;;;;5156367;27;20051;-76
2022/04/04 01:09:56;;;;;;;8.02;5.43;;;4.10;99.90;;;;;;5158443;27;20053;-75
2022/04/04 01:12:22;;;;;;;8.77;5.85;;;4.10;99.90;;;;;;5155685;27;20031;-75
2022/04/04 01:14:48;;;;;;;7.15;6.00;;;4.20;99.90;;;;;;5149553;27;20419;-75
2022/04/04 01:17:14;;;;;;;7.63;6.05;;;4.20;99.90;;;;;;5137356;27;20548;-76
2022/04/04 01:19:40;;;;;;;9.43;6.35;;;4.20;99.90;;;;;;5117262;27;20039;-75
2022/04/04 01:22:08;;;;;;;8.93;6.80;;;4.20;99.90;;;;;;5154493;27;20492;-75
2022/04/04 01:24:34;;;;;;;10.63;7.47;;;4.20;99.90;;;;;;5138169;27;20052;-75
2022/04/04 01:27:00;;;;;;;9.13;6.22;;;4.20;99.90;;;;;;5135731;27;20046;-76
2022/04/04 01:29:26;;;;;;;10.00;7.07;;;4.20;99.90;;;;;;5148764;27;20405;-75
2022/04/04 01:31:51;;;;;;;10.40;7.28;;;4.20;99.90;;;;;;5137429;27;20054;-75
2022/04/04 01:34:21;;;;;;;10.18;7.13;;;4.20;99.90;;;;;;5137408;27;20039;-75
2022/04/04 01:36:48;;;;;;;8.43;7.13;;;4.20;99.90;;;;;;5100528;27;20054;-75
2022/04/04 01:39:13;;;;;;;11.73;7.28;;;4.20;99.90;;;;;;5125172;27;20091;-75
2022/04/04 01:41:39;;;;;;;9.93;7.45;;;4.20;99.90;;;;;;5137561;27;20389;-75
2022/04/04 01:44:05;;;;;;;9.52;7.70;;;4.20;99.90;;;;;;5154882;27;20046;-76
2022/04/04 01:46:31;;;;;;;12.30;8.50;;;4.20;99.90;;;;;;5155944;27;20050;-76
2022/04/04 01:49:01;;;;;;;14.63;8.52;;;4.30;99.90;;;;;;5137061;27;20393;-75
2022/04/04 01:51:27;;;;;;;11.93;8.43;;;4.30;99.90;;;;;;5116095;27;20517;-75
2022/04/04 01:53:52;;;;;;;12.40;8.45;;;4.30;99.90;;;;;;5152288;27;20046;-76
2022/04/04 01:56:18;;;;;;;11.38;8.73;;;4.20;99.90;;;;;;5116270;27;20039;-75
2022/04/04 01:58:44;;;;;;;12.45;9.75;;;4.20;99.90;;;;;;5120786;27;20039;-75
2022/04/04 02:01:11;;;;;;;12.63;9.60;;;4.30;99.90;;;;;;5142461;27;20041;-75
2022/04/04 02:03:37;;;;;;;13.95;10.32;;;4.30;99.90;;;;;;5150048;27;20043;-71
2022/04/04 02:06:04;;;;;;;13.25;9.57;;;4.30;99.90;;;;;;5120894;27;20066;-72
2022/04/04 02:08:31;;;;;;;11.20;9.40;;;4.30;99.90;;;;;;5103614;27;20093;-72
2022/04/04 02:10:57;;;;;;;12.13;9.88;;;4.40;99.90;;;;;;5156555;27;20062;-72
2022/04/04 02:13:25;;;;;;;11.90;9.88;;;4.30;99.90;;;;;;5104424;27;20125;-72
2022/04/04 02:15:52;;;;;;;12.20;9.93;;;4.40;99.90;;;;;;5138368;27;20046;-74
2022/04/04 02:18:18;;;;;;;13.15;10.07;;;4.40;99.90;;;;;;5120933;27;20057;-73
2022/04/04 02:20:44;;;;;;;12.45;10.18;;;4.40;99.90;;;;;;5120723;27;20129;-72
2022/04/04 02:23:10;;;;;;;12.63;9.68;;;4.50;99.90;;;;;;5137955;27;20167;-73
2022/04/04 02:25:36;;;;;;;12.98;10.40;;;4.40;99.90;;;;;;5121007;27;20152;-72
2022/04/04 02:28:01;;;;;;;12.90;10.18;;;4.50;99.90;;;;;;5120798;27;20134;-73
2022/04/04 02:30:27;;;;;;;11.32;9.85;;;4.50;99.90;;;;;;5137771;27;20121;-72
2022/04/04 02:32:53;;;;;;;12.73;9.70;;;4.50;99.90;;;;;;5121519;27;20038;-72
2022/04/04 02:35:19;;;;;;;15.02;10.45;;;4.60;99.90;;;;;;5104427;27;20053;-72
2022/04/04 02:37:45;;;;;;;14.75;10.10;;;4.60;99.90;;;;;;5120823;27;20402;-73
2022/04/04 02:40:10;;;;;;;17.23;11.52;;;4.60;99.90;;;;;;5120347;27;20046;-77
2022/04/04 02:42:36;;;;;;;13.45;9.57;;;4.50;99.90;;;;;;5103351;27;20042;-72
2022/04/04 02:45:02;;;;;;;15.07;9.98;;;4.50;99.90;;;;;;5103496;27;20081;-72
2022/04/04 02:47:28;;;;;;;14.48;10.60;;;4.60;99.90;;;;;;5120417;27;20129;-72
2022/04/04 02:49:53;;;;;;;13.38;10.55;;;4.70;99.90;;;;;;5103650;27;20187;-72
2022/04/04 02:52:19;;;;;;;13.20;10.73;;;4.60;99.90;;;;;;5137206;27;20050;-72
2022/04/04 02:54:45;;;;;;;12.60;10.63;;;4.60;99.90;;;;;;5120414;27;20042;-72
2022/04/04 02:57:10;;;;;;;18.42;10.60;;;4.70;99.90;;;;;;5120319;27;20046;-72
2022/04/04 02:59:37;;;;;;;14.57;11.07;;;4.70;99.90;;;;;;5103472;27;20480;-73
2022/04/04 03:02:04;;;;;;;15.80;11.32;;;4.70;99.90;;;;;;5119231;27;20082;-73
2022/04/04 03:04:30;;;;;;;15.27;10.90;;;4.70;99.90;;;;;;5136885;27;20042;-72
2022/04/04 03:06:56;;;;;;;15.27;10.48;;;4.70;99.90;;;;;;5136884;27;20058;-72
2022/04/04 03:09:22;;;;;;;14.85;11.38;;;4.80;99.90;;;;;;5137648;27;20135;-72
2022/04/04 03:11:47;;;;;;;13.88;10.80;;;4.80;99.90;;;;;;5120327;27;20082;-72
2022/04/04 03:14:13;;;;;;;17.48;11.40;;;4.80;99.90;;;;;;5102717;27;20038;-73
2022/04/04 03:16:39;;;;;;;15.77;11.65;;;4.80;99.90;;;;;;5119928;27;20111;-74
2022/04/04 03:19:04;;;;;;;17.65;12.15;;;4.90;99.90;;;;;;5120281;27;20394;-73
2022/04/04 03:21:30;;;;;;;16.23;10.93;;;4.90;99.90;;;;;;5120606;27;20095;-73
2022/04/04 03:23:56;;;;;;;15.77;11.35;;;4.80;99.90;;;;;;5103674;27;20050;-73
2022/04/04 03:26:23;;;;;;;16.00;11.60;;;5.00;99.90;;;;;;5136895;27;20451;-73
2022/04/04 03:28:54;;;;;;;13.88;11.52;;;4.90;99.90;;;;;;5137268;27;20085;-73
2022/04/04 03:31:20;;;;;;;14.50;11.88;;;4.90;99.90;;;;;;5119591;27;20475;-73
2022/04/04 03:33:45;;;;;;;18.90;11.35;;;5.00;99.90;;;;;;5119847;27;20474;-73
2022/04/04 03:36:11;;;;;;;16.88;11.80;;;4.90;99.90;;;;;;5103652;27;20418;-73
2022/04/04 03:38:37;;;;;;;17.35;11.88;;;5.00;99.90;;;;;;5119924;27;20471;-73
2022/04/04 03:41:02;;;;;;;16.05;11.63;;;5.00;99.90;;;;;;5136584;27;20043;-73
2022/04/04 03:43:28;;;;;;;17.23;11.98;;;5.00;99.90;;;;;;5102608;27;20043;-73
2022/04/04 03:45:53;;;;;;;15.52;11.90;;;5.00;99.90;;;;;;5136885;27;20057;-74
2022/04/04 03:48:19;;;;;;;16.08;11.52;;;5.10;99.90;;;;;;5103170;27;20046;-74
2022/04/04 03:50:45;;;;;;;19.38;12.52;;;5.00;99.90;;;;;;5103580;27;20042;-73
2022/04/04 03:53:11;;;;;;;19.55;12.27;;;5.10;99.90;;;;;;5119579;27;20099;-73
2022/04/04 03:55:38;;;;;;;17.40;11.90;;;5.10;99.90;;;;;;5119584;27;20475;-73
2022/04/04 03:58:04;;;;;;;18.00;12.15;;;5.10;99.90;;;;;;5103008;27;20043;-74
2022/04/04 04:00:30;;;;;;;20.08;12.43;;;5.10;99.90;;;;;;5102875;27;20039;-71
2022/04/04 04:02:56;;;;;;;18.85;12.45;;;5.10;99.90;;;;;;5136440;27;20042;-72
2022/04/04 04:05:21;;;;;;;17.70;12.25;;;5.20;99.90;;;;;;5102841;27;20042;-73
2022/04/04 04:07:47;;;;;;;17.88;12.50;;;5.20;99.90;;;;;;5102160;27;20061;-73
2022/04/04 04:10:13;;;;;;;16.60;11.68;;;5.20;99.90;;;;;;5102568;27;20061;-72
2022/04/04 04:12:42;;;;;;;18.90;13.15;;;5.20;99.90;;;;;;5103316;27;20038;-72
2022/04/04 04:15:13;;;;;;;15.43;11.95;;;5.10;99.90;;;;;;5123971;27;20050;-73
2022/04/04 04:17:39;;;;;;;17.75;12.18;;;5.10;99.90;;;;;;5106528;27;20046;-72
2022/04/04 04:20:20;;;;;;;21.85;13.07;;;5.10;99.90;;;;;;5123182;27;20073;-72
2022/04/04 04:22:52;;;;;;;21.15;12.85;;;5.10;99.90;;;;;;5125929;27;20057;-72
2022/04/04 04:25:18;;;;;;;16.33;12.60;;;5.10;99.90;;;;;;5123514;27;20042;-72
2022/04/04 04:27:45;;;;;;;21.17;13.50;;;5.10;99.90;;;;;;5122886;27;20047;-73
2022/04/04 04:30:11;;;;;;;20.38;12.27;;;5.10;99.90;;;;;;5089626;27;20086;-73
2022/04/04 04:32:37;;;;;;;18.65;12.68;;;5.10;99.90;;;;;;5089326;27;20082;-71
2022/04/04 04:35:02;;;;;;;19.58;12.75;;;5.10;99.90;;;;;;5123101;27;20039;-73
2022/04/04 04:37:28;;;;;;;16.33;12.02;;;5.10;99.90;;;;;;5139788;27;20050;-72
2022/04/04 04:39:54;;;;;;;19.38;11.73;;;5.20;99.90;;;;;;5122821;27;20505;-71
2022/04/04 04:42:19;;;;;;;18.55;12.45;;;5.20;99.90;;;;;;5106421;27;20363;-72
2022/04/04 04:44:45;;;;;;;16.05;11.85;;;5.00;99.90;;;;;;5105801;27;20046;-72
2022/04/04 04:47:11;;;;;;;16.08;12.10;;;5.10;99.90;;;;;;5140264;27;20050;-71
2022/04/04 04:49:37;;;;;;;18.08;12.25;;;5.10;99.90;;;;;;5139768;27;20042;-72
2022/04/04 04:52:03;;;;;;;14.30;11.73;;;5.10;99.90;;;;;;5105796;27;20038;-73
2022/04/04 04:54:30;;;;;;;16.23;12.02;;;5.10;99.90;;;;;;5122732;27;20050;-73
2022/04/04 04:56:56;;;;;;;19.27;12.48;;;5.10;99.90;;;;;;5140220;27;20058;-73
2022/04/04 04:59:22;;;;;;;22.63;13.02;;;5.10;99.90;;;;;;5140164;27;20074;-73
2022/04/04 05:01:48;;;;;;;19.55;12.35;;;5.20;99.90;;;;;;5122738;27;20466;-73
2022/04/04 05:04:14;;;;;;;15.77;12.40;;;5.10;99.90;;;;;;5122394;27;20078;-73
2022/04/04 05:06:40;;;;;;;16.73;12.45;;;5.10;99.90;;;;;;5123129;27;20086;-73
2022/04/04 05:09:06;;;;;;;17.05;12.38;;;5.20;99.90;;;;;;5104927;27;20081;-73
2022/04/04 05:11:32;;;;;;;17.48;13.15;;;5.00;99.90;;;;;;5139252;27;20417;-74
2022/04/04 05:13:58;;;;;;;18.70;13.30;;;5.10;99.90;;;;;;5122081;27;20050;-73
2022/04/04 05:16:28;;;;;;;16.98;12.82;;;5.00;99.90;;;;;;5105032;27;20074;-74
2022/04/04 05:18:55;;;;;;;17.42;12.75;;;5.10;99.90;;;;;;5139517;27;20042;-74
2022/04/04 05:21:21;;;;;;;18.42;13.40;;;5.10;99.90;;;;;;5139940;27;20147;-73
2022/04/04 05:23:47;;;;;;;20.35;12.38;;;5.00;99.90;;;;;;5104706;27;20465;-74
2022/04/04 05:26:13;;;;;;;19.35;13.02;;;5.10;99.90;;;;;;5138626;27;20397;-73
2022/04/04 05:28:39;;;;;;;21.77;13.52;;;5.10;99.90;;;;;;5138580;27;20050;-73
2022/04/04 05:31:05;;;;;;;20.73;12.75;;;5.10;99.90;;;;;;5139730;27;20034;-74
2022/04/04 05:33:31;;;;;;;21.20;12.23;;;5.10;99.90;;;;;;5122866;27;20053;-73
2022/04/04 05:35:56;;;;;;;16.15;11.40;;;5.10;99.90;;;;;;5138768;27;20047;-73
2022/04/04 05:38:22;;;;;;;20.98;11.50;;;5.10;99.90;;;;;;5121782;27;20049;-73
2022/04/04 05:40:48;;;;;;;17.20;11.65;;;5.10;99.90;;;;;;5139607;27;20081;-73
2022/04/04 05:43:13;;;;;;;14.50;10.18;;;5.10;99.90;;;;;;5157648;27;20055;-74
2022/04/04 05:45:39;;;;;;;17.83;10.00;;;5.20;99.90;;;;;;5138639;27;20069;-74
2022/04/04 05:48:06;;;;;;;12.70;8.52;;;5.20;99.90;;;;;;5138930;27;20222;-73
2022/04/04 05:50:32;;;;;;;19.27;8.18;;;5.20;99.90;;;;;;5138608;27;20394;-74
2022/04/04 05:52:58;;;;;;;11.65;7.53;;;5.20;99.90;;;;;;5156869;27;20074;-73
2022/04/04 05:55:24;;;;;;;16.40;6.88;;;5.30;99.90;;;;;;5138363;27;20085;-73
2022/04/04 05:57:49;;;;;;;11.95;5.88;;;5.20;99.90;;;;;;5105182;27;20443;-73
2022/04/04 06:00:16;;;;;;;13.15;6.18;;;5.20;99.90;;;;;;5121659;27;20046;-73
2022/04/04 06:02:42;;;;;;;9.68;5.40;;;5.20;99.90;;;;;;5120969;27;20047;-73
2022/04/04 06:05:08;;;;;;;12.18;6.00;;;5.20;99.90;;;;;;5121184;27;20047;-73
2022/04/04 06:07:38;;;;;;;10.13;5.50;;;5.20;99.90;;;;;;5103530;27;20486;-73
2022/04/04 06:10:05;;;;;;;11.23;5.32;;;5.20;99.90;;;;;;5121073;27;20042;-73
2022/04/04 06:12:31;;;;;;;8.65;5.18;;;5.20;99.90;;;;;;5104382;27;20069;-73
2022/04/04 06:14:57;;;;;;;9.85;4.88;;;5.30;99.90;;;;;;5087126;27;20042;-75
2022/04/04 06:17:28;;;;;;;8.93;4.82;;;5.20;99.90;;;;;;5106337;27;20491;-73
2022/04/04 06:19:55;;;;;;;8.18;4.07;;;5.20;99.90;;;;;;5120747;27;20034;-73
2022/04/04 06:22:22;;;;;;;9.63;4.50;;;5.20;99.90;;;;;;5120683;27;20054;-73
2022/04/04 06:24:48;;;;;;;7.15;3.75;;;5.20;99.90;;;;;;5104570;27;20047;-73
2022/04/04 06:27:15;;;;;;;8.27;3.80;;;5.10;99.90;;;;;;5121166;27;20089;-73
2022/04/04 06:29:43;;;;;;;10.30;4.40;;;5.10;99.90;;;;;;5121536;27;20046;-74
2022/04/04 06:32:10;;;;;;;7.35;3.88;;;5.10;99.90;;;;;;5137932;27;20402;-74
2022/04/04 06:34:36;;;;;;;12.00;4.10;;;5.10;99.90;;;;;;5103970;27;20047;-74
2022/04/04 06:37:04;;;;;;;6.15;4.22;;;5.10;99.90;;;;;;5121031;27;20050;-75
2022/04/04 06:39:30;;;;;;;8.82;4.18;;;5.10;99.90;;;;;;5087341;27;20038;-74
2022/04/04 06:41:56;;;;;;;8.98;3.90;;;5.10;99.90;;;;;;5103265;27;20049;-74
2022/04/04 06:44:23;;;;;;;9.80;4.15;;;5.10;99.90;;;;;;5103777;27;20113;-74
2022/04/04 06:46:48;;;;;;;6.60;4.00;;;5.10;99.90;;;;;;5156591;27;20050;-74
2022/04/04 06:49:14;;;;;;;7.50;4.25;;;5.10;99.90;;;;;;5120499;27;20133;-74
2022/04/04 06:51:40;;;;;;;8.18;4.18;;;5.10;99.90;;;;;;5120557;27;20114;-73
2022/04/04 06:54:06;;;;;;;7.22;4.07;;;5.10;99.90;;;;;;5120311;27;20070;-74
2022/04/04 06:56:34;;;;;;;10.07;4.28;;;5.10;99.90;;;;;;5103617;27;20095;-74
2022/04/04 06:59:03;;;;;;;9.10;4.63;;;5.10;99.90;;;;;;5120363;27;20131;-73
2022/04/04 07:01:31;;;;;;;9.35;4.68;;;5.10;99.90;;;;;;5103623;27;20402;-74
2022/04/04 07:03:58;;;;;;;7.13;4.72;;;5.10;99.90;;;;;;5103805;27;20047;-74
2022/04/04 07:06:25;;;;;;;9.88;5.30;;;5.20;99.90;;;;;;5137025;27;20038;-74
2022/04/04 07:08:50;;;;;;;11.30;5.22;;;5.20;99.90;;;;;;5137276;27;20057;-74
2022/04/04 07:11:16;;;;;;;14.10;6.30;;;5.20;99.90;;;;;;5137924;27;20039;-74
2022/04/04 07:13:44;;;;;;;11.05;6.22;;;5.20;99.90;;;;;;5119733;27;20042;-74
2022/04/04 07:16:10;;;;;;;9.25;5.85;;;5.20;99.90;;;;;;5137199;27;20046;-74
2022/04/04 07:18:36;;;;;;;9.73;6.25;;;5.20;99.90;;;;;;5119902;27;20076;-74
2022/04/04 07:21:02;;;;;;;10.15;6.28;;;5.30;99.90;;;;;;5119645;27;20081;-74
2022/04/04 07:23:28;;;;;;;9.80;6.28;;;5.30;99.90;;;;;;5102718;27;20078;-74
2022/04/04 07:25:53;;;;;;;8.45;6.30;;;5.40;99.90;;;;;;5119662;27;20050;-74
2022/04/04 07:28:21;;;;;;;10.50;6.45;;;5.30;99.90;;;;;;5119961;27;20050;-74
2022/04/04 07:30:47;;;;;;;11.07;7.20;;;5.30;99.90;;;;;;5155245;27;20050;-79
2022/04/04 07:33:15;;;;;;;10.27;7.05;;;5.30;99.90;;;;;;5119871;27;20042;-74
2022/04/04 07:35:42;;;;;;;8.27;6.45;;;5.30;99.90;;;;;;5121032;27;20047;-74
2022/04/04 07:38:08;;;;;;;9.45;7.10;;;5.30;99.90;;;;;;5102964;27;20107;-74
2022/04/04 07:40:34;;;;;;;8.90;7.25;;;5.40;99.90;;;;;;5103546;27;20488;-75
2022/04/04 07:43:00;;;;;;;10.27;6.93;;;5.40;99.90;;;;;;5086369;27;20126;-75
2022/04/04 07:45:27;;;;;;;10.50;7.85;;;5.40;99.90;;;;;;5119352;27;20134;-75
2022/04/04 07:48:13;;;;;;;9.45;7.20;;;5.50;99.90;;;;;;5104341;27;20160;-80
2022/04/04 07:50:45;;;;;;;;;;;5.50;99.90;;;;;;5124679;27;20058;-79
2022/04/04 07:53:11;;;;;;;10.40;7.20;;;5.40;99.90;;;;;;5123838;27;19919;-74
2022/04/04 07:55:37;;;;;;;10.00;7.70;;;5.40;99.90;;;;;;5140701;27;20050;-73
2022/04/04 07:58:05;;;;;;;9.60;7.07;;;5.40;99.90;;;;;;5159100;27;20090;-80
2022/04/04 08:00:31;;;;;;;11.93;7.22;;;5.40;99.90;;;;;;5106942;27;20383;-74
2022/04/04 08:02:56;;;;;;;10.50;6.72;;;5.50;99.90;;;;;;5107126;27;20076;-73
2022/04/04 08:05:23;;;;;;;12.70;6.65;;;5.50;99.90;;;;;;5159116;27;20047;-73
2022/04/04 08:07:51;;;;;;;10.85;6.78;;;5.40;99.90;;;;;;5123308;27;20094;-73
2022/04/04 08:10:17;;;;;;;10.82;6.55;;;5.50;99.90;;;;;;5124705;27;20139;-73
2022/04/04 08:12:44;;;;;;;9.68;6.50;;;5.50;99.90;;;;;;5123373;27;20043;-73
2022/04/04 08:15:10;;;;;;;9.73;6.35;;;5.50;99.90;;;;;;5140214;27;20042;-74
2022/04/04 08:17:37;;;;;;;9.43;6.30;;;5.50;99.90;;;;;;5140441;27;20090;-73
2022/04/04 08:20:03;;;;;;;9.65;5.63;;;5.50;99.90;;;;;;5105830;27;20047;-73
2022/04/04 08:22:29;;;;;;;11.00;6.00;;;5.50;99.90;;;;;;5140230;27;20077;-73
2022/04/04 08:24:54;;;;;;;7.43;5.78;;;5.60;99.90;;;;;;5122950;27;20043;-74
2022/04/04 08:27:22;;;;;;;8.75;5.32;;;5.60;99.90;;;;;;5123836;27;20057;-73
2022/04/04 08:29:47;;;;;;;10.73;5.82;;;5.60;99.90;;;;;;5123158;27;20497;-73
2022/04/04 08:32:13;;;;;;;7.57;5.22;;;5.60;99.90;;;;;;5106008;27;20050;-73
2022/04/04 08:34:39;;;;;;;8.98;5.55;;;5.60;99.90;;;;;;5158486;27;20042;-73
2022/04/04 08:37:05;;;;;;;9.82;4.97;;;5.70;99.90;;;;;;5123574;27;20494;-73
2022/04/04 08:39:30;;;;;;;8.77;5.03;;;5.70;99.90;;;;;;5140467;27;20061;-73
2022/04/04 08:41:56;;;;;;;8.60;4.78;;;5.80;99.90;;;;;;5158195;27;20043;-75
2022/04/04 08:44:22;;;;;;;9.98;4.90;;;5.80;99.90;;;;;;5158295;27;20074;-73
2022/04/04 08:46:47;;;;;;;9.10;4.55;;;5.70;99.90;;;;;;5158771;27;20043;-73
2022/04/04 08:49:13;;;;;;;7.30;4.60;;;5.80;99.90;;;;;;5139678;27;20074;-74
2022/04/04 08:51:39;;;;;;;7.72;4.13;;;5.80;99.90;;;;;;5123340;27;20049;-74
2022/04/04 08:54:04;;;;;;;6.57;4.38;;;5.90;99.90;;;;;;5105462;27;20134;-75
2022/04/04 08:56:30;;;;;;;7.75;4.20;;;5.80;99.90;;;;;;5140201;27;20082;-74
2022/04/04 08:58:56;;;;;;;6.22;3.97;;;5.90;99.90;;;;;;5122694;27;20060;-74
2022/04/04 09:01:23;;;;;;;7.18;3.92;;;6.00;99.90;;;;;;5122365;27;20030;-73
2022/04/04 09:04:13;;;;;;;6.80;3.60;;;5.90;99.90;;;;;;5105750;27;20050;-73
2022/04/04 09:06:55;;;;;;;7.57;3.88;;;5.90;99.90;;;;;;5157241;27;20070;-73
2022/04/04 09:09:25;;;;;;;5.15;3.22;;;6.00;99.90;;;;;;5139946;27;20420;-73
2022/04/04 09:12:06;;;;;;;15.90;5.40;;;6.00;99.90;;;;;;5105148;27;20498;-73
2022/04/04 09:14:44;;;;;;;7.22;3.83;;;6.00;99.90;;;;;;5139979;27;20042;-74
2022/04/04 09:17:11;;;;;;;4.57;3.20;;;6.00;99.90;;;;;;5123993;27;20096;-73
2022/04/04 09:19:37;;;;;;;8.98;3.50;;;6.00;99.90;;;;;;5139517;27;20095;-73
2022/04/04 09:22:10;;;;;;;4.25;3.35;;;6.10;99.90;;;;;;5139071;27;20042;-73
2022/04/04 09:24:49;;;;;;;7.43;3.58;;;6.10;99.90;;;;;;5140128;27;20039;-73
2022/04/04 09:27:25;;;;;;;4.75;3.00;;;6.10;99.90;;;;;;5122034;27;20043;-73
2022/04/04 09:29:53;;;;;;;8.43;3.90;;;6.10;99.90;;;;;;5122710;27;20459;-73
2022/04/04 09:32:19;;;;;;;6.28;3.10;;;6.20;99.90;;;;;;5138990;27;20134;-73
2022/04/04 09:35:18;;;;;;;5.65;3.80;;;6.20;99.90;;;;;;5157889;27;20126;-73
2022/04/04 09:37:45;;;;;;;7.40;3.22;;;6.20;99.90;;;;;;5123846;27;20094;-73
2022/04/04 09:40:18;;;;;;;6.07;3.50;;;6.20;99.90;;;;;;5138945;27;20390;-73
2022/04/04 09:42:57;;;;;;;5.93;3.45;;;6.30;99.90;;;;;;5105778;27;20467;-74
2022/04/04 09:45:25;;;;;;;6.53;3.33;;;6.40;99.90;;;;;;5139030;27;20091;-76
2022/04/04 09:48:04;;;;;;;8.25;3.33;;;6.30;99.90;;;;;;5104865;27;20100;-74
2022/04/04 09:50:36;;;;;;;5.28;3.13;;;6.20;99.90;;;;;;5124335;27;20051;-74
2022/04/04 09:53:03;;;;;;;6.68;3.38;;;6.40;99.90;;;;;;5104772;27;20054;-74
2022/04/04 09:55:30;;;;;;;7.55;3.30;;;6.30;99.90;;;;;;5121904;27;20042;-73
2022/04/04 09:57:58;;;;;;;5.18;3.17;;;6.30;99.90;;;;;;5138548;27;20046;-73
2022/04/04 10:00:23;;;;;;;6.03;3.10;;;6.30;99.90;;;;;;5138465;27;20054;-73
2022/04/04 10:02:50;;;;;;;7.32;3.20;;;6.40;99.90;;;;;;5121065;27;20043;-73
2022/04/04 10:05:16;;;;;;;6.13;2.70;;;6.40;99.90;;;;;;5104440;27;20147;-75
2022/04/04 10:07:41;;;;;;;8.32;3.20;;;6.40;99.90;;;;;;5117542;27;20462;-73
2022/04/04 10:10:07;;;;;;;5.40;2.95;;;6.50;99.90;;;;;;5136187;27;20093;-74
2022/04/04 10:12:36;;;;;;;5.45;3.65;;;6.50;99.90;;;;;;5101514;27;20459;-74
2022/04/04 10:15:03;;;;;;;6.88;3.10;;;6.60;99.90;;;;;;5084159;27;20083;-74
2022/04/04 10:17:29;;;;;;;7.95;2.97;;;6.40;99.90;;;;;;5134468;27;20058;-73
2022/04/04 10:19:55;;;;;;;9.27;3.30;;;6.50;99.90;;;;;;5117461;27;20047;-73
2022/04/04 10:22:20;;;;;;;7.70;3.53;;;6.60;99.90;;;;;;5117166;27;20387;-74
2022/04/04 10:24:46;;;;;;;9.63;3.10;;;6.50;99.90;;;;;;5118210;27;20039;-73
2022/04/04 10:27:13;;;;;;;7.53;3.20;;;6.50;99.90;;;;;;5135204;27;20035;-73
2022/04/04 10:29:40;;;;;;;8.02;3.53;;;6.50;99.90;;;;;;5100751;27;20483;-73
2022/04/04 10:32:06;;;;;;;6.55;3.00;;;6.60;99.90;;;;;;5135384;27;20433;-73
2022/04/04 10:34:32;;;;;;;5.07;2.70;;;6.60;99.90;;;;;;5117151;27;20044;-74
2022/04/04 10:37:00;;;;;;;6.32;2.67;;;6.60;99.90;;;;;;5117757;27;20112;-73
2022/04/04 10:39:52;;;;;;;5.15;2.40;;;6.60;99.90;;;;;;5100315;27;20094;-74
2022/04/04 10:42:26;;;;;;;3.75;2.50;;;6.60;99.90;;;;;;5132512;27;20055;-74
2022/04/04 10:45:00;;;;;;;5.57;2.67;;;6.60;99.90;;;;;;5134495;27;20085;-73
2022/04/04 10:47:27;;;;;;;7.90;2.50;;;6.60;99.90;;;;;;5134094;27;20054;-74
2022/04/04 10:49:55;;;;;;;4.60;2.30;;;6.70;99.90;;;;;;5101032;27;20344;-74
2022/04/04 10:52:37;;;;;;;5.93;2.42;;;6.70;99.90;;;;;;5135080;27;20043;-77
2022/04/04 10:55:28;;;;;;;5.03;2.45;;;6.70;99.90;;;;;;5133893;27;20050;-76
2022/04/04 10:58:09;;;;;;;5.95;2.63;;;6.80;99.90;;;;;;5135137;27;20054;-74
2022/04/04 11:00:59;;;;;;;4.85;2.45;;;6.80;99.90;;;;;;5117276;27;20035;-75
2022/04/04 11:03:35;;;;;;;4.80;2.50;;;6.90;99.90;;;;;;5118158;27;20043;-76
2022/04/04 11:09:22;;;;;;;5.50;2.20;;;6.90;99.90;;;;;;5121115;27;20476;-75
2022/04/04 11:12:15;;;;;;;4.15;2.05;;;6.90;99.90;;;;;;5133465;27;20514;-74
2022/04/04 11:14:42;;;;;;;2.63;1.85;;;7.00;99.90;;;;;;5118177;27;20122;-75
2022/04/04 11:17:52;;;;;;;3.63;2.03;;;7.00;99.90;;;;;;5116809;27;20069;-76
2022/04/04 11:20:21;;;;;;;3.80;1.60;;;7.00;99.90;;;;;;5120026;27;20558;-75
2022/04/04 11:22:51;;;;;;;3.30;1.70;;;7.00;99.90;;;;;;5133221;27;20043;-73
2022/04/04 11:25:21;;;;;;;2.58;1.50;;;7.10;99.90;;;;;;5117742;27;20479;-76
2022/04/04 11:27:48;;;;;;;2.88;1.95;;;7.10;99.90;;;;;;5133494;27;20102;-73
2022/04/04 11:30:15;;;;;;;1.60;1.20;;;7.20;99.90;;;;;;5100273;28;20047;-73
2022/04/04 11:32:42;;;;;;;3.53;1.65;;;7.20;99.90;;;;;;5134556;27;20047;-73
2022/04/04 11:35:15;;;;;;;2.80;1.15;;;7.20;99.90;;;;;;5135082;27;20061;-73
2022/04/04 11:38:12;;;;;;;2.25;1.42;;;7.30;99.90;;;;;;5134046;28;20479;-73
2022/04/04 11:40:44;;;;;;;1.80;1.20;;;7.40;99.90;;;;;;5132712;28;20126;-73
2022/04/04 11:43:11;;;;;;;1.10;0.98;;;7.40;99.90;;;;;;5134376;27;20074;-73
2022/04/04 11:45:39;;;;;;;3.88;1.30;;;7.40;99.90;;;;;;5116263;28;20047;-73
2022/04/04 11:48:14;;;;;;;2.05;1.23;;;7.40;99.90;;;;;;5116817;28;20046;-73
2022/04/04 11:50:39;;;;;;;2.17;1.15;;;7.40;99.90;;;;;;5133325;28;20047;-73
2022/04/04 11:53:07;;;;;;;4.07;1.10;;;7.40;99.90;;;;;;5133698;28;20045;-75
2022/04/04 11:55:33;;;;;;;3.13;1.08;;;7.40;99.90;;;;;;5134895;28;20455;-75
2022/04/04 11:58:15;;;;;;;3.75;1.20;;;7.50;99.90;;;;;;5134376;27;20051;-74
2022/04/04 12:00:53;;;;;;;2.50;1.08;;;7.40;99.90;;;;;;5134278;27;20047;-74
2022/04/04 12:03:19;;;;;;;2.65;1.10;;;7.50;99.90;;;;;;5117589;28;20134;-72
2022/04/04 12:05:46;;;;;;;2.45;1.05;;;7.50;99.90;;;;;;5115971;28;20151;-73
2022/04/04 12:08:12;;;;;;;1.20;0.90;;;7.50;99.90;;;;;;5132930;28;20055;-72
2022/04/04 12:10:39;;;;;;;3.53;1.00;;;7.50;99.90;;;;;;5134389;28;20399;-72
2022/04/04 12:13:23;;;;;;;2.45;1.10;;;7.50;99.90;;;;;;5116157;28;20133;-75
2022/04/04 12:15:51;;;;;;;1.38;0.93;;;7.50;99.90;;;;;;5134584;27;20104;-74
2022/04/04 12:18:26;;;;;;;1.05;0.82;;;7.60;99.90;;;;;;5132953;28;20421;-73
2022/04/04 12:20:53;;;;;;;1.48;1.00;;;7.60;99.90;;;;;;5133217;28;20535;-74
2022/04/04 12:26:10;;;;;;;1.73;0.93;;;7.70;99.90;;;;;;5133334;28;20051;-74
2022/04/04 12:28:36;;;;;;;;;;;7.70;99.90;;;;;;5100865;28;20055;-74
2022/04/04 12:31:16;;;;;;;1.35;0.90;;;7.70;99.90;;;;;;5115794;28;19920;-76
2022/04/04 12:33:42;;;;;;;0.70;0.70;;;7.70;99.90;;;;;;5134438;27;20490;-73
2022/04/04 12:36:07;;;;;;;1.67;0.80;;;7.70;99.90;;;;;;5119448;27;20043;-74
2022/04/04 12:38:38;;;;;;;1.83;0.90;;;7.80;99.90;;;;;;5137581;27;20035;-74
2022/04/04 12:41:15;;;;;;;1.13;0.80;;;7.80;99.90;;;;;;5137617;27;20062;-74
2022/04/04 12:43:48;;;;;;;3.78;1.08;;;7.90;99.90;;;;;;5137568;27;20061;-75
2022/04/04 12:46:31;;;;;;;2.58;0.80;;;7.90;99.90;;;;;;5103093;27;20046;-73
2022/04/04 12:49:20;;;;;;;1.70;0.95;;;7.80;99.90;;;;;;5120128;27;20370;-73
2022/04/04 12:52:00;;;;;;;2.60;1.00;;;7.90;99.90;;;;;;5125921;27;20055;-75
2022/04/04 12:54:36;;;;;;;1.23;0.80;;;7.90;99.90;;;;;;5120016;27;20053;-75
2022/04/04 12:57:09;;;;;;;2.72;0.77;;;7.90;99.90;;;;;;5119916;27;20043;-75
2022/04/04 12:59:53;;;;;;;1.75;0.90;;;7.90;99.90;;;;;;5138086;27;20043;-75
2022/04/04 13:02:18;;;;;;;1.90;0.80;;;8.10;99.90;;;;;;5120007;27;20039;-73